Time;durP1;ratioP1;P1;durP2;ratioP2;P2;SDS_P1;SDS_P2;PMS_P1;PMS_P2;Temp;Humidity;BMP_temperature;BMP_pressure;BME280_temperature;BME280_humidity;BME280_pressure;Samples;Min_cycle;Max_cycle;Signal;HPM_P1;HPM_P2
2021/10/29 00:08:20;;;;;;;12.07;5.40;;;15.90;48.40;;;;;;20812993;28;80682;-72
2021/10/29 00:18:23;;;;;;;13.37;5.67;;;15.90;48.00;;;;;;20812192;28;80390;-72
2021/10/29 00:28:25;;;;;;;14.07;5.57;;;15.90;48.60;;;;;;20809480;28;80842;-69
2021/10/29 00:38:28;;;;;;;9.37;5.77;;;15.80;49.00;;;;;;20810409;28;80956;-70
2021/10/29 00:48:30;;;;;;;14.77;6.35;;;15.80;49.50;;;;;;20809260;28;81999;-71
2021/10/29 00:58:32;;;;;;;16.20;6.25;;;15.70;49.90;;;;;;20808894;28;80915;-71
2021/10/29 01:08:36;;;;;;;13.70;6.93;;;15.70;50.30;;;;;;20808343;28;80973;-70
2021/10/29 01:18:41;;;;;;;17.02;7.22;;;15.60;51.20;;;;;;20807934;28;80735;-70
2021/10/29 01:28:46;;;;;;;14.77;7.10;;;15.70;50.80;;;;;;20808629;28;80602;-71
2021/10/29 01:38:52;;;;;;;14.45;7.07;;;15.70;49.90;;;;;;20807391;28;80743;-71
2021/10/29 01:48:55;;;;;;;21.85;8.73;;;15.80;49.50;;;;;;20806562;28;80697;-71
2021/10/29 01:59:01;;;;;;;17.92;7.15;;;15.80;49.10;;;;;;20830682;27;80942;-71
2021/10/29 02:09:03;;;;;;;13.60;7.70;;;15.70;49.10;;;;;;20862505;27;81560;-72
2021/10/29 02:19:25;;;;;;;14.38;7.07;;;15.70;49.50;;;;;;20830283;28;82771;-71
2021/10/29 02:29:35;;;;;;;22.23;7.90;;;15.70;49.60;;;;;;20803358;28;81868;-70
2021/10/29 02:39:49;;;;;;;15.27;6.68;;;15.70;49.70;;;;;;20803052;28;80595;-70
2021/10/29 02:50:03;;;;;;;17.60;7.40;;;15.70;49.20;;;;;;20802814;28;81160;-69
2021/10/29 03:00:16;;;;;;;15.93;8.30;;;15.70;49.10;;;;;;20835950;28;80282;-71
2021/10/29 03:10:38;;;;;;;17.08;7.68;;;15.80;49.00;;;;;;20878580;27;82014;-71
2021/10/29 03:20:59;;;;;;;16.17;8.90;;;15.70;48.70;;;;;;20889605;28;80868;-70
2021/10/29 03:31:20;;;;;;;23.83;9.57;;;15.70;48.70;;;;;;20896347;27;82533;-69
2021/10/29 03:41:34;;;;;;;14.95;6.95;;;15.70;51.20;;;;;;20894405;28;82101;-71
2021/10/29 03:51:58;;;;;;;14.52;7.43;;;15.70;52.00;;;;;;20894874;28;80821;-72
2021/10/29 04:02:23;;;;;;;18.55;8.50;;;15.60;51.70;;;;;;20924009;27;80270;-70
2021/10/29 04:12:31;;;;;;;17.77;7.47;;;15.60;52.20;;;;;;20897300;27;81448;-70
2021/10/29 04:22:44;;;;;;;13.50;7.23;;;15.50;52.70;;;;;;20894827;27;80844;-72
2021/10/29 04:32:52;;;;;;;13.80;7.65;;;15.60;52.50;;;;;;20895194;27;81075;-71
2021/10/29 04:43:09;;;;;;;18.92;6.65;;;15.50;54.60;;;;;;20894531;28;81758;-68
2021/10/29 04:53:30;;;;;;;9.38;5.75;;;15.40;55.40;;;;;;20893890;27;80041;-70
2021/10/29 05:03:34;;;;;;;20.13;6.95;;;15.50;54.20;;;;;;20893068;27;80035;-70
2021/10/29 05:13:39;;;;;;;13.02;7.03;;;15.40;53.80;;;;;;20924782;27;81565;-71
2021/10/29 05:23:41;;;;;;;10.93;6.28;;;15.50;53.70;;;;;;20890411;28;81136;-70
2021/10/29 05:33:44;;;;;;;16.87;6.97;;;15.40;53.40;;;;;;20888694;27;81513;-76
2021/10/29 05:43:46;;;;;;;10.90;5.10;;;15.30;53.40;;;;;;20869496;27;81925;-71
2021/10/29 05:53:55;;;;;;;10.68;4.13;;;15.10;53.70;;;;;;20877238;27;82381;-70
2021/10/29 06:03:59;;;;;;;10.57;4.03;;;15.00;54.20;;;;;;20867394;27;81364;-72
2021/10/29 06:14:01;;;;;;;8.67;4.60;;;14.90;54.20;;;;;;20871356;27;81062;-62
2021/10/29 06:24:09;;;;;;;10.23;3.83;;;14.90;54.50;;;;;;20873419;27;81783;-63
2021/10/29 06:34:13;;;;;;;10.70;4.38;;;15.00;54.10;;;;;;20866350;27;82437;-63
2021/10/29 06:44:28;;;;;;;10.43;4.30;;;15.10;54.20;;;;;;20871407;27;81821;-61
2021/10/29 07:46:30;;;;;;;9.23;4.33;;;15.30;56.60;;;;;;20867441;28;81931;-61
2021/10/29 07:56:38;;;;;;;7.57;4.00;;;15.50;56.00;;;;;;20869677;27;81830;-59
2021/10/29 08:06:41;;;;;;;13.88;3.72;;;15.60;55.50;;;;;;20881153;27;81806;-63
2021/10/29 08:16:44;;;;;;;11.60;5.03;;;16.10;54.00;;;;;;20882272;27;81621;-61
2021/10/29 08:26:49;;;;;;;15.00;4.38;;;16.20;53.60;;;;;;20882060;28;81905;-63
2021/10/29 08:36:58;;;;;;;10.25;3.53;;;16.20;53.50;;;;;;20882365;27;81085;-62
2021/10/29 08:47:04;;;;;;;7.32;3.20;;;16.60;52.50;;;;;;20883091;27;81631;-61
2021/10/29 08:57:07;;;;;;;5.00;3.17;;;17.10;51.00;;;;;;20881756;27;82057;-61
2021/10/29 09:07:33;;;;;;;5.10;2.95;;;17.60;49.70;;;;;;20875048;27;81312;-61
2021/10/29 09:38:57;;;;;;;7.28;2.58;;;17.50;50.70;;;;;;20870809;28;83034;-63
2021/10/29 09:49:09;;;;;;;7.10;2.65;;;17.70;49.90;;;;;;20879161;27;80794;-61
2021/10/29 09:59:16;;;;;;;8.30;3.20;;;17.20;51.70;;;;;;20873473;27;81070;-62
2021/10/29 10:09:20;;;;;;;7.97;3.60;;;17.20;52.20;;;;;;20875263;27;80035;-64
2021/10/29 10:19:31;;;;;;;9.63;4.13;;;16.70;54.80;;;;;;20868988;27;81091;-60
2021/10/29 10:50:26;;;;;;;10.02;4.20;;;17.50;53.50;;;;;;20868775;28;81259;-61
2021/10/29 11:00:51;;;;;;;16.38;6.38;;;17.50;53.00;;;;;;20867621;28;81115;-63
2021/10/29 11:11:04;;;;;;;7.95;3.67;;;17.40;53.40;;;;;;20873700;27;81956;-61
2021/10/29 11:21:19;;;;;;;5.85;3.03;;;17.40;53.30;;;;;;20868740;28;81780;-60
2021/10/29 11:31:26;;;;;;;8.82;3.90;;;17.20;53.40;;;;;;20875443;27;81739;-63
2021/10/29 11:41:34;;;;;;;7.80;2.72;;;16.90;54.30;;;;;;20885044;28;81172;-61
2021/10/29 11:51:42;;;;;;;7.43;3.42;;;16.90;54.10;;;;;;20884325;28;81162;-61
2021/10/29 12:12:14;;;;;;;7.23;4.37;;;16.30;59.00;;;;;;20879980;27;80774;-61
2021/10/29 12:32:40;;;;;;;14.25;5.45;;;14.70;69.00;;;;;;20883862;27;81176;-65
2021/10/29 12:54:08;;;;;;;13.05;6.28;;;14.00;76.70;;;;;;20893085;28;81690;-62
2021/10/29 13:03:43;;;;;;;11.30;6.18;;;14.40;77.20;;;;;;20887711;28;81988;-61
2021/10/29 13:13:54;;;;;;;9.57;5.93;;;14.90;76.20;;;;;;20892810;27;81739;-61
2021/10/29 13:34:44;;;;;;;11.73;6.45;;;15.10;74.60;;;;;;20890980;27;80246;-61
2021/10/29 14:36:22;;;;;;;9.32;4.65;;;15.10;74.80;;;;;;20866826;27;82164;-60
2021/10/29 15:47:49;;;;;;;18.80;9.40;;;14.70;78.90;;;;;;20795377;28;81903;-61
2021/10/29 15:58:10;;;;;;;16.30;9.65;;;14.60;79.50;;;;;;20778124;28;81940;-62
2021/10/29 16:18:34;;;;;;;18.15;9.80;;;14.50;80.50;;;;;;20790167;28;82618;-60
2021/10/29 16:28:37;;;;;;;17.77;9.45;;;14.30;81.10;;;;;;20812133;28;84213;-59
2021/10/29 16:38:39;;;;;;;10.85;8.23;;;14.30;82.00;;;;;;20810802;28;81235;-60
2021/10/29 16:48:41;;;;;;;14.70;9.38;;;14.20;82.30;;;;;;20811159;28;81909;-61
2021/10/29 16:58:43;;;;;;;15.00;9.13;;;14.20;82.60;;;;;;20816379;27;81652;-61
2021/10/29 17:08:45;;;;;;;12.57;9.55;;;14.30;82.80;;;;;;20808512;28;80582;-61
2021/10/29 17:18:47;;;;;;;14.70;9.25;;;14.20;83.10;;;;;;20814696;27;82215;-62
2021/10/29 17:28:49;;;;;;;20.30;14.15;;;14.20;83.30;;;;;;20858407;27;80840;-72
2021/10/29 17:38:52;;;;;;;31.98;21.83;;;14.30;83.60;;;;;;20807820;27;82864;-71
2021/10/29 17:48:55;;;;;;;26.35;16.50;;;14.20;83.70;;;;;;20796658;28;84483;-70
2021/10/29 17:58:57;;;;;;;13.70;9.33;;;14.30;83.80;;;;;;20795067;28;84988;-71
2021/10/29 18:09:06;;;;;;;11.40;8.37;;;14.30;84.00;;;;;;20806775;28;82069;-73
2021/10/29 18:19:08;;;;;;;18.60;10.57;;;14.30;84.10;;;;;;20811223;27;81761;-70
2021/10/29 18:29:11;;;;;;;19.75;11.38;;;14.20;84.20;;;;;;20795835;28;82834;-71
2021/10/29 18:39:13;;;;;;;20.30;11.43;;;14.30;84.40;;;;;;20795931;27;84147;-71
2021/10/29 18:49:15;;;;;;;18.35;9.85;;;14.30;84.50;;;;;;20801368;28;83700;-71
2021/10/29 18:59:17;;;;;;;16.77;9.75;;;14.40;84.60;;;;;;20784561;28;83396;-71
2021/10/29 19:09:19;;;;;;;15.83;10.63;;;14.40;84.80;;;;;;20883445;27;80748;-71
2021/10/29 19:19:21;;;;;;;16.42;7.93;;;14.40;84.90;;;;;;20868227;27;83285;-74
2021/10/29 19:29:23;;;;;;;14.88;8.73;;;14.30;85.10;;;;;;20888220;27;84705;-73
2021/10/29 19:49:59;;;;;;;13.40;8.53;;;14.30;85.40;;;;;;20827494;28;80858;-70
2021/10/29 20:00:03;;;;;;;13.40;8.05;;;14.30;85.70;;;;;;20865077;27;81766;-71
2021/10/29 20:10:07;;;;;;;15.88;7.82;;;14.40;85.80;;;;;;20828635;28;81735;-71
2021/10/29 20:20:10;;;;;;;16.52;9.23;;;14.40;85.80;;;;;;20885137;27;81959;-70
2021/10/29 20:30:12;;;;;;;10.07;6.07;;;14.40;85.90;;;;;;20897451;28;80831;-73
2021/10/29 20:40:15;;;;;;;6.53;3.70;;;14.30;85.80;;;;;;20896715;27;81585;-70
2021/10/29 20:50:18;;;;;;;4.80;2.60;;;14.30;85.70;;;;;;20894348;28;79969;-71
2021/10/29 21:00:22;;;;;;;;;;;14.20;85.70;;;;;;20825398;27;80756;-73
2021/10/29 21:10:27;;;;;;;12.35;5.35;;;14.00;86.10;;;;;;20831750;28;80851;-71
2021/10/29 21:20:29;;;;;;;;;;;13.90;86.20;;;;;;20811279;28;80159;-72
2021/10/29 21:30:32;;;;;;;15.25;7.82;;;14.00;86.40;;;;;;20898010;27;79160;-71
2021/10/29 21:40:38;;;;;;;10.30;5.82;;;14.20;86.40;;;;;;20873717;27;81319;-71
2021/10/29 21:50:40;;;;;;;17.20;5.00;;;14.20;86.30;;;;;;20830317;28;80916;-70
2021/10/29 22:00:44;;;;;;;10.50;5.35;;;14.10;86.70;;;;;;20806303;28;81098;-73
2021/10/29 22:10:47;;;;;;;12.00;5.38;;;14.00;87.20;;;;;;20808865;27;82262;-68
2021/10/29 22:20:49;;;;;;;15.45;6.47;;;14.00;87.60;;;;;;20828722;27;81229;-69
2021/10/29 22:30:57;;;;;;;11.88;6.65;;;14.00;88.20;;;;;;20855884;28;82434;-71
2021/10/29 22:41:00;;;;;;;10.90;6.00;;;14.00;88.60;;;;;;20852508;27;80729;-73
2021/10/29 22:51:03;;;;;;;13.65;4.35;;;14.00;89.00;;;;;;20816139;27;81911;-70
2021/10/29 23:01:07;;;;;;;8.93;4.07;;;14.00;89.40;;;;;;20803917;28;81081;-67
2021/10/29 23:11:09;;;;;;;7.95;3.70;;;13.90;89.70;;;;;;20803119;28;80762;-71
2021/10/29 23:21:12;;;;;;;8.10;3.87;;;13.90;90.00;;;;;;20802398;28;80731;-70
2021/10/29 23:31:14;;;;;;;9.50;4.20;;;13.90;90.20;;;;;;20808873;28;80666;-73
2021/10/29 23:41:33;;;;;;;9.15;4.13;;;14.00;90.40;;;;;;20815527;27;80563;-73
2021/10/29 23:51:35;;;;;;;10.13;4.40;;;14.00;90.50;;;;;;20815980;28;81814;-68
